sensor_id;sensor_type;location;lat;lon;timestamp;P1;durP1;ratioP1;P2;durP2;ratioP2
73872;SDS011;62206;47.568;9.364;2024-02-15T00:00:02;10.10;;;8.98;;
73872;SDS011;62206;47.568;9.364;2024-02-15T00:02:48;12.10;;;9.43;;
73872;SDS011;62206;47.568;9.364;2024-02-15T00:05:29;13.63;;;9.05;;
73872;SDS011;62206;47.568;9.364;2024-02-15T00:08:11;10.88;;;8.20;;
73872;SDS011;62206;47.568;9.364;2024-02-15T00:10:55;12.68;;;9.13;;
73872;SDS011;62206;47.568;9.364;2024-02-15T00:13:38;11.23;;;9.15;;
73872;SDS011;62206;47.568;9.364;2024-02-15T00:16:20;13.88;;;9.77;;
73872;SDS011;62206;47.568;9.364;2024-02-15T00:19:01;12.73;;;9.23;;
73872;SDS011;62206;47.568;9.364;2024-02-15T00:21:43;10.57;;;8.65;;
73872;SDS011;62206;47.568;9.364;2024-02-15T00:24:25;11.85;;;9.30;;
73872;SDS011;62206;47.568;9.364;2024-02-15T00:27:07;10.73;;;8.60;;
73872;SDS011;62206;47.568;9.364;2024-02-15T00:29:50;10.02;;;8.75;;
73872;SDS011;62206;47.568;9.364;2024-02-15T00:32:32;10.27;;;8.05;;
73872;SDS011;62206;47.568;9.364;2024-02-15T00:35:13;10.30;;;8.93;;
73872;SDS011;62206;47.568;9.364;2024-02-15T00:37:55;9.82;;;8.63;;
73872;SDS011;62206;47.568;9.364;2024-02-15T00:40:37;10.65;;;9.32;;
73872;SDS011;62206;47.568;9.364;2024-02-15T00:43:23;10.60;;;9.50;;
73872;SDS011;62206;47.568;9.364;2024-02-15T00:46:06;9.65;;;8.57;;
73872;SDS011;62206;47.568;9.364;2024-02-15T00:48:48;10.82;;;9.73;;
73872;SDS011;62206;47.568;9.364;2024-02-15T00:51:29;12.73;;;9.77;;
73872;SDS011;62206;47.568;9.364;2024-02-15T00:54:11;9.98;;;8.60;;
73872;SDS011;62206;47.568;9.364;2024-02-15T00:56:53;10.82;;;8.70;;
73872;SDS011;62206;47.568;9.364;2024-02-15T00:59:34;10.05;;;8.82;;
73872;SDS011;62206;47.568;9.364;2024-02-15T01:02:18;10.10;;;8.70;;
73872;SDS011;62206;47.568;9.364;2024-02-15T01:05:00;9.80;;;8.80;;
73872;SDS011;62206;47.568;9.364;2024-02-15T01:07:41;11.02;;;9.02;;
73872;SDS011;62206;47.568;9.364;2024-02-15T01:10:23;9.50;;;8.45;;
73872;SDS011;62206;47.568;9.364;2024-02-15T01:13:06;9.75;;;8.20;;
73872;SDS011;62206;47.568;9.364;2024-02-15T01:15:48;9.52;;;8.63;;
73872;SDS011;62206;47.568;9.364;2024-02-15T01:18:31;11.25;;;8.55;;
73872;SDS011;62206;47.568;9.364;2024-02-15T01:21:13;10.30;;;9.15;;
73872;SDS011;62206;47.568;9.364;2024-02-15T01:23:55;10.75;;;8.15;;
73872;SDS011;62206;47.568;9.364;2024-02-15T01:26:36;10.02;;;9.02;;
73872;SDS011;62206;47.568;9.364;2024-02-15T01:29:18;11.25;;;9.20;;
73872;SDS011;62206;47.568;9.364;2024-02-15T01:32:00;9.93;;;8.93;;
73872;SDS011;62206;47.568;9.364;2024-02-15T01:34:44;10.07;;;8.27;;
73872;SDS011;62206;47.568;9.364;2024-02-15T01:37:26;10.90;;;8.52;;
73872;SDS011;62206;47.568;9.364;2024-02-15T01:40:08;9.82;;;8.48;;
73872;SDS011;62206;47.568;9.364;2024-02-15T01:42:52;9.80;;;8.32;;
73872;SDS011;62206;47.568;9.364;2024-02-15T01:45:35;10.38;;;8.90;;
73872;SDS011;62206;47.568;9.364;2024-02-15T01:48:16;11.02;;;7.90;;
73872;SDS011;62206;47.568;9.364;2024-02-15T01:51:00;12.63;;;8.65;;
73872;SDS011;62206;47.568;9.364;2024-02-15T01:53:43;11.60;;;9.45;;
73872;SDS011;62206;47.568;9.364;2024-02-15T01:56:25;9.55;;;8.52;;
73872;SDS011;62206;47.568;9.364;2024-02-15T01:59:07;10.25;;;9.15;;
73872;SDS011;62206;47.568;9.364;2024-02-15T02:01:49;10.20;;;9.18;;
73872;SDS011;62206;47.568;9.364;2024-02-15T02:04:31;12.20;;;9.20;;
73872;SDS011;62206;47.568;9.364;2024-02-15T02:07:14;10.15;;;8.70;;
73872;SDS011;62206;47.568;9.364;2024-02-15T02:09:56;9.45;;;8.40;;
73872;SDS011;62206;47.568;9.364;2024-02-15T02:12:37;10.32;;;8.35;;
73872;SDS011;62206;47.568;9.364;2024-02-15T02:15:19;9.25;;;8.35;;
73872;SDS011;62206;47.568;9.364;2024-02-15T02:18:01;9.60;;;8.60;;
73872;SDS011;62206;47.568;9.364;2024-02-15T02:20:43;9.70;;;8.02;;
73872;SDS011;62206;47.568;9.364;2024-02-15T02:23:27;10.60;;;9.30;;
73872;SDS011;62206;47.568;9.364;2024-02-15T02:26:11;9.57;;;8.57;;
73872;SDS011;62206;47.568;9.364;2024-02-15T02:28:52;10.80;;;7.90;;
73872;SDS011;62206;47.568;9.364;2024-02-15T02:31:34;9.43;;;8.45;;
73872;SDS011;62206;47.568;9.364;2024-02-15T02:34:16;9.70;;;7.90;;
73872;SDS011;62206;47.568;9.364;2024-02-15T02:36:59;8.27;;;7.35;;
73872;SDS011;62206;47.568;9.364;2024-02-15T02:39:42;8.90;;;7.15;;
73872;SDS011;62206;47.568;9.364;2024-02-15T02:42:29;8.90;;;7.47;;
73872;SDS011;62206;47.568;9.364;2024-02-15T02:45:14;8.23;;;6.93;;
73872;SDS011;62206;47.568;9.364;2024-02-15T02:48:00;8.88;;;7.97;;
73872;SDS011;62206;47.568;9.364;2024-02-15T02:50:45;9.70;;;7.22;;
73872;SDS011;62206;47.568;9.364;2024-02-15T02:53:31;9.63;;;8.10;;
73872;SDS011;62206;47.568;9.364;2024-02-15T02:56:16;9.07;;;8.00;;
73872;SDS011;62206;47.568;9.364;2024-02-15T02:59:03;8.85;;;7.95;;
73872;SDS011;62206;47.568;9.364;2024-02-15T03:01:51;8.50;;;7.57;;
73872;SDS011;62206;47.568;9.364;2024-02-15T03:04:40;8.93;;;7.13;;
73872;SDS011;62206;47.568;9.364;2024-02-15T03:07:25;8.82;;;7.88;;
73872;SDS011;62206;47.568;9.364;2024-02-15T03:10:11;8.90;;;8.00;;
73872;SDS011;62206;47.568;9.364;2024-02-15T03:12:57;9.45;;;8.10;;
73872;SDS011;62206;47.568;9.364;2024-02-15T03:15:44;8.25;;;6.43;;
73872;SDS011;62206;47.568;9.364;2024-02-15T03:18:31;8.10;;;7.18;;
73872;SDS011;62206;47.568;9.364;2024-02-15T03:21:17;8.73;;;7.47;;
73872;SDS011;62206;47.568;9.364;2024-02-15T03:24:04;10.75;;;7.88;;
73872;SDS011;62206;47.568;9.364;2024-02-15T03:26:50;10.25;;;8.15;;
73872;SDS011;62206;47.568;9.364;2024-02-15T03:29:36;9.02;;;7.43;;
73872;SDS011;62206;47.568;9.364;2024-02-15T03:32:23;9.15;;;7.20;;
73872;SDS011;62206;47.568;9.364;2024-02-15T03:35:08;9.65;;;8.30;;
73872;SDS011;62206;47.568;9.364;2024-02-15T03:37:55;7.85;;;6.38;;
73872;SDS011;62206;47.568;9.364;2024-02-15T03:40:41;8.38;;;7.50;;
73872;SDS011;62206;47.568;9.364;2024-02-15T03:43:26;9.02;;;7.25;;
73872;SDS011;62206;47.568;9.364;2024-02-15T03:46:11;8.63;;;7.55;;
73872;SDS011;62206;47.568;9.364;2024-02-15T03:48:59;8.73;;;7.75;;
73872;SDS011;62206;47.568;9.364;2024-02-15T03:51:45;9.35;;;8.30;;
73872;SDS011;62206;47.568;9.364;2024-02-15T03:54:30;8.15;;;7.18;;
73872;SDS011;62206;47.568;9.364;2024-02-15T03:57:16;8.48;;;7.68;;
73872;SDS011;62206;47.568;9.364;2024-02-15T04:00:02;9.15;;;7.80;;
73872;SDS011;62206;47.568;9.364;2024-02-15T04:02:48;8.00;;;7.20;;
73872;SDS011;62206;47.568;9.364;2024-02-15T04:05:34;9.50;;;7.63;;
73872;SDS011;62206;47.568;9.364;2024-02-15T04:08:20;9.05;;;8.05;;
73872;SDS011;62206;47.568;9.364;2024-02-15T04:11:05;8.50;;;7.43;;
73872;SDS011;62206;47.568;9.364;2024-02-15T04:13:51;8.77;;;7.88;;
73872;SDS011;62206;47.568;9.364;2024-02-15T04:16:37;9.45;;;7.65;;
73872;SDS011;62206;47.568;9.364;2024-02-15T04:19:22;8.20;;;7.40;;
73872;SDS011;62206;47.568;9.364;2024-02-15T04:22:09;7.63;;;6.82;;
73872;SDS011;62206;47.568;9.364;2024-02-15T04:24:54;8.45;;;7.40;;
73872;SDS011;62206;47.568;9.364;2024-02-15T04:27:40;8.82;;;7.05;;
73872;SDS011;62206;47.568;9.364;2024-02-15T04:30:25;7.90;;;7.10;;
73872;SDS011;62206;47.568;9.364;2024-02-15T04:33:10;9.40;;;7.50;;
73872;SDS011;62206;47.568;9.364;2024-02-15T04:35:58;7.97;;;7.18;;
73872;SDS011;62206;47.568;9.364;2024-02-15T04:38:47;7.35;;;6.63;;
73872;SDS011;62206;47.568;9.364;2024-02-15T04:41:34;8.15;;;7.35;;
73872;SDS011;62206;47.568;9.364;2024-02-15T04:44:22;8.13;;;7.30;;
73872;SDS011;62206;47.568;9.364;2024-02-15T04:47:11;9.70;;;7.38;;
73872;SDS011;62206;47.568;9.364;2024-02-15T04:49:38;9.15;;;7.55;;
73872;SDS011;62206;47.568;9.364;2024-02-15T04:52:05;9.50;;;7.75;;
73872;SDS011;62206;47.568;9.364;2024-02-15T04:54:34;9.65;;;7.90;;
73872;SDS011;62206;47.568;9.364;2024-02-15T04:57:01;10.73;;;9.02;;
73872;SDS011;62206;47.568;9.364;2024-02-15T04:59:28;9.82;;;8.55;;
73872;SDS011;62206;47.568;9.364;2024-02-15T05:01:55;9.57;;;8.60;;
73872;SDS011;62206;47.568;9.364;2024-02-15T05:04:23;9.88;;;8.88;;
73872;SDS011;62206;47.568;9.364;2024-02-15T05:06:50;11.27;;;10.13;;
73872;SDS011;62206;47.568;9.364;2024-02-15T05:09:18;11.05;;;9.85;;
73872;SDS011;62206;47.568;9.364;2024-02-15T05:11:47;11.20;;;9.25;;
73872;SDS011;62206;47.568;9.364;2024-02-15T05:14:14;11.13;;;9.57;;
73872;SDS011;62206;47.568;9.364;2024-02-15T05:16:44;10.68;;;8.95;;
73872;SDS011;62206;47.568;9.364;2024-02-15T05:19:13;11.50;;;9.20;;
73872;SDS011;62206;47.568;9.364;2024-02-15T05:21:41;11.40;;;8.70;;
73872;SDS011;62206;47.568;9.364;2024-02-15T05:24:10;11.23;;;9.68;;
73872;SDS011;62206;47.568;9.364;2024-02-15T05:26:39;12.68;;;9.50;;
73872;SDS011;62206;47.568;9.364;2024-02-15T05:29:10;11.50;;;9.95;;
73872;SDS011;62206;47.568;9.364;2024-02-15T05:31:37;10.82;;;9.73;;
73872;SDS011;62206;47.568;9.364;2024-02-15T05:34:06;10.02;;;8.90;;
73872;SDS011;62206;47.568;9.364;2024-02-15T05:36:36;10.45;;;9.35;;
73872;SDS011;62206;47.568;9.364;2024-02-15T05:39:03;9.65;;;8.65;;
73872;SDS011;62206;47.568;9.364;2024-02-15T05:41:31;9.95;;;8.93;;
73872;SDS011;62206;47.568;9.364;2024-02-15T05:43:59;11.23;;;9.85;;
73872;SDS011;62206;47.568;9.364;2024-02-15T05:46:27;12.00;;;9.18;;
73872;SDS011;62206;47.568;9.364;2024-02-15T05:48:55;12.93;;;9.38;;
73872;SDS011;62206;47.568;9.364;2024-02-15T05:51:22;11.13;;;9.00;;
73872;SDS011;62206;47.568;9.364;2024-02-15T05:53:48;11.15;;;9.90;;
73872;SDS011;62206;47.568;9.364;2024-02-15T05:56:16;10.27;;;9.18;;
73872;SDS011;62206;47.568;9.364;2024-02-15T05:58:43;12.10;;;9.63;;
73872;SDS011;62206;47.568;9.364;2024-02-15T06:01:10;10.63;;;9.27;;
73872;SDS011;62206;47.568;9.364;2024-02-15T06:03:40;11.05;;;9.52;;
73872;SDS011;62206;47.568;9.364;2024-02-15T06:06:09;11.27;;;9.88;;
73872;SDS011;62206;47.568;9.364;2024-02-15T06:08:37;12.32;;;10.10;;
73872;SDS011;62206;47.568;9.364;2024-02-15T06:11:04;11.50;;;10.13;;
73872;SDS011;62206;47.568;9.364;2024-02-15T06:13:32;11.95;;;10.77;;
73872;SDS011;62206;47.568;9.364;2024-02-15T06:15:59;11.98;;;9.98;;
73872;SDS011;62206;47.568;9.364;2024-02-15T06:18:28;11.85;;;10.07;;
73872;SDS011;62206;47.568;9.364;2024-02-15T06:20:58;12.02;;;9.25;;
73872;SDS011;62206;47.568;9.364;2024-02-15T06:23:26;11.52;;;10.32;;
73872;SDS011;62206;47.568;9.364;2024-02-15T06:25:55;11.15;;;9.95;;
73872;SDS011;62206;47.568;9.364;2024-02-15T06:28:23;11.88;;;9.27;;
73872;SDS011;62206;47.568;9.364;2024-02-15T06:31:05;12.95;;;10.25;;
73872;SDS011;62206;47.568;9.364;2024-02-15T06:33:49;11.10;;;10.00;;
73872;SDS011;62206;47.568;9.364;2024-02-15T06:36:35;10.98;;;9.70;;
73872;SDS011;62206;47.568;9.364;2024-02-15T06:39:23;14.75;;;12.40;;
73872;SDS011;62206;47.568;9.364;2024-02-15T06:42:07;20.55;;;12.95;;
73872;SDS011;62206;47.568;9.364;2024-02-15T06:44:35;13.75;;;11.07;;
73872;SDS011;62206;47.568;9.364;2024-02-15T06:47:05;17.98;;;12.60;;
73872;SDS011;62206;47.568;9.364;2024-02-15T06:49:34;13.93;;;10.63;;
73872;SDS011;62206;47.568;9.364;2024-02-15T06:52:01;13.40;;;11.65;;
73872;SDS011;62206;47.568;9.364;2024-02-15T06:54:28;14.20;;;10.75;;
73872;SDS011;62206;47.568;9.364;2024-02-15T06:56:55;12.82;;;10.38;;
73872;SDS011;62206;47.568;9.364;2024-02-15T06:59:23;14.33;;;10.97;;
73872;SDS011;62206;47.568;9.364;2024-02-15T07:01:50;16.33;;;11.63;;
73872;SDS011;62206;47.568;9.364;2024-02-15T07:04:18;17.98;;;11.57;;
73872;SDS011;62206;47.568;9.364;2024-02-15T07:06:45;14.20;;;10.95;;
73872;SDS011;62206;47.568;9.364;2024-02-15T07:09:15;12.23;;;10.27;;
73872;SDS011;62206;47.568;9.364;2024-02-15T07:11:45;13.13;;;10.17;;
73872;SDS011;62206;47.568;9.364;2024-02-15T07:14:12;13.27;;;10.40;;
73872;SDS011;62206;47.568;9.364;2024-02-15T07:16:39;17.75;;;12.70;;
73872;SDS011;62206;47.568;9.364;2024-02-15T07:19:06;14.48;;;10.80;;
73872;SDS011;62206;47.568;9.364;2024-02-15T07:21:34;13.48;;;10.15;;
73872;SDS011;62206;47.568;9.364;2024-02-15T07:24:01;10.53;;;8.90;;
73872;SDS011;62206;47.568;9.364;2024-02-15T07:26:32;13.25;;;10.23;;
73872;SDS011;62206;47.568;9.364;2024-02-15T07:29:00;15.23;;;9.77;;
73872;SDS011;62206;47.568;9.364;2024-02-15T07:31:31;17.73;;;10.10;;
73872;SDS011;62206;47.568;9.364;2024-02-15T07:33:59;12.18;;;9.77;;
73872;SDS011;62206;47.568;9.364;2024-02-15T07:36:26;9.90;;;8.30;;
73872;SDS011;62206;47.568;9.364;2024-02-15T07:38:54;11.00;;;9.10;;
73872;SDS011;62206;47.568;9.364;2024-02-15T07:41:23;10.07;;;9.07;;
73872;SDS011;62206;47.568;9.364;2024-02-15T07:43:51;10.20;;;8.95;;
73872;SDS011;62206;47.568;9.364;2024-02-15T07:46:21;14.32;;;9.30;;
73872;SDS011;62206;47.568;9.364;2024-02-15T07:48:49;11.40;;;9.77;;
73872;SDS011;62206;47.568;9.364;2024-02-15T07:51:16;11.85;;;9.70;;
73872;SDS011;62206;47.568;9.364;2024-02-15T07:53:45;11.52;;;10.00;;
73872;SDS011;62206;47.568;9.364;2024-02-15T07:56:14;11.40;;;10.02;;
73872;SDS011;62206;47.568;9.364;2024-02-15T07:58:42;11.35;;;9.20;;
73872;SDS011;62206;47.568;9.364;2024-02-15T08:01:13;12.63;;;9.50;;
73872;SDS011;62206;47.568;9.364;2024-02-15T08:03:41;12.52;;;10.07;;
73872;SDS011;62206;47.568;9.364;2024-02-15T08:06:10;12.32;;;10.95;;
73872;SDS011;62206;47.568;9.364;2024-02-15T08:08:38;12.10;;;10.13;;
73872;SDS011;62206;47.568;9.364;2024-02-15T08:11:06;12.20;;;10.02;;
73872;SDS011;62206;47.568;9.364;2024-02-15T08:13:41;12.13;;;9.50;;
73872;SDS011;62206;47.568;9.364;2024-02-15T08:16:09;10.90;;;9.55;;
73872;SDS011;62206;47.568;9.364;2024-02-15T08:18:39;11.27;;;9.98;;
73872;SDS011;62206;47.568;9.364;2024-02-15T08:21:06;11.98;;;9.73;;
73872;SDS011;62206;47.568;9.364;2024-02-15T08:23:33;14.18;;;10.43;;
73872;SDS011;62206;47.568;9.364;2024-02-15T08:25:59;12.23;;;10.00;;
73872;SDS011;62206;47.568;9.364;2024-02-15T08:28:27;14.32;;;10.68;;
73872;SDS011;62206;47.568;9.364;2024-02-15T08:30:54;11.68;;;10.48;;
73872;SDS011;62206;47.568;9.364;2024-02-15T08:33:22;13.43;;;10.63;;
73872;SDS011;62206;47.568;9.364;2024-02-15T08:35:51;12.10;;;10.80;;
73872;SDS011;62206;47.568;9.364;2024-02-15T08:38:20;11.80;;;10.60;;
73872;SDS011;62206;47.568;9.364;2024-02-15T08:40:47;13.77;;;11.10;;
73872;SDS011;62206;47.568;9.364;2024-02-15T08:43:14;14.80;;;10.73;;
73872;SDS011;62206;47.568;9.364;2024-02-15T08:45:41;12.57;;;10.38;;
73872;SDS011;62206;47.568;9.364;2024-02-15T08:48:08;12.27;;;10.38;;
73872;SDS011;62206;47.568;9.364;2024-02-15T08:50:36;11.37;;;9.93;;
73872;SDS011;62206;47.568;9.364;2024-02-15T08:53:04;11.65;;;10.45;;
73872;SDS011;62206;47.568;9.364;2024-02-15T08:55:32;11.57;;;10.07;;
73872;SDS011;62206;47.568;9.364;2024-02-15T08:58:01;11.65;;;9.90;;
73872;SDS011;62206;47.568;9.364;2024-02-15T09:00:29;11.02;;;9.73;;
73872;SDS011;62206;47.568;9.364;2024-02-15T09:02:56;11.80;;;10.10;;
73872;SDS011;62206;47.568;9.364;2024-02-15T09:05:24;13.75;;;10.50;;
73872;SDS011;62206;47.568;9.364;2024-02-15T09:07:50;12.48;;;10.35;;
73872;SDS011;62206;47.568;9.364;2024-02-15T09:10:19;12.85;;;10.52;;
73872;SDS011;62206;47.568;9.364;2024-02-15T09:12:48;13.07;;;11.68;;
73872;SDS011;62206;47.568;9.364;2024-02-15T09:15:15;11.87;;;9.73;;
73872;SDS011;62206;47.568;9.364;2024-02-15T09:17:42;12.20;;;10.55;;
73872;SDS011;62206;47.568;9.364;2024-02-15T09:20:11;12.82;;;10.73;;
73872;SDS011;62206;47.568;9.364;2024-02-15T09:22:41;12.35;;;10.93;;
73872;SDS011;62206;47.568;9.364;2024-02-15T09:25:08;13.52;;;11.85;;
73872;SDS011;62206;47.568;9.364;2024-02-15T09:27:37;12.20;;;10.67;;
73872;SDS011;62206;47.568;9.364;2024-02-15T09:30:07;12.02;;;10.65;;
73872;SDS011;62206;47.568;9.364;2024-02-15T09:32:36;11.13;;;10.00;;
73872;SDS011;62206;47.568;9.364;2024-02-15T09:35:04;13.82;;;10.05;;
73872;SDS011;62206;47.568;9.364;2024-02-15T09:37:33;12.13;;;10.00;;
73872;SDS011;62206;47.568;9.364;2024-02-15T09:40:00;10.53;;;9.03;;
73872;SDS011;62206;47.568;9.364;2024-02-15T09:42:31;10.68;;;9.57;;
73872;SDS011;62206;47.568;9.364;2024-02-15T09:45:02;10.88;;;9.05;;
73872;SDS011;62206;47.568;9.364;2024-02-15T09:47:30;10.30;;;9.15;;
73872;SDS011;62206;47.568;9.364;2024-02-15T09:50:01;10.73;;;8.90;;
73872;SDS011;62206;47.568;9.364;2024-02-15T09:52:28;10.37;;;9.07;;
73872;SDS011;62206;47.568;9.364;2024-02-15T09:54:57;11.60;;;9.18;;
73872;SDS011;62206;47.568;9.364;2024-02-15T09:57:25;9.95;;;8.85;;
73872;SDS011;62206;47.568;9.364;2024-02-15T09:59:53;10.95;;;9.40;;
73872;SDS011;62206;47.568;9.364;2024-02-15T10:02:22;10.75;;;8.52;;
73872;SDS011;62206;47.568;9.364;2024-02-15T10:04:50;9.67;;;8.10;;
73872;SDS011;62206;47.568;9.364;2024-02-15T10:07:17;10.07;;;8.40;;
73872;SDS011;62206;47.568;9.364;2024-02-15T10:09:43;10.25;;;8.05;;
73872;SDS011;62206;47.568;9.364;2024-02-15T10:12:11;9.00;;;8.10;;
73872;SDS011;62206;47.568;9.364;2024-02-15T10:14:38;8.85;;;7.50;;
73872;SDS011;62206;47.568;9.364;2024-02-15T10:17:05;8.53;;;7.53;;
73872;SDS011;62206;47.568;9.364;2024-02-15T10:19:36;8.13;;;7.20;;
73872;SDS011;62206;47.568;9.364;2024-02-15T10:22:07;8.50;;;7.30;;
73872;SDS011;62206;47.568;9.364;2024-02-15T10:24:35;7.63;;;6.78;;
73872;SDS011;62206;47.568;9.364;2024-02-15T10:27:02;8.88;;;7.95;;
73872;SDS011;62206;47.568;9.364;2024-02-15T10:29:31;9.67;;;7.87;;
73872;SDS011;62206;47.568;9.364;2024-02-15T10:31:59;10.20;;;8.57;;
73872;SDS011;62206;47.568;9.364;2024-02-15T10:34:27;9.73;;;7.60;;
73872;SDS011;62206;47.568;9.364;2024-02-15T10:37:09;9.23;;;8.32;;
73872;SDS011;62206;47.568;9.364;2024-02-15T10:39:38;10.60;;;8.80;;
73872;SDS011;62206;47.568;9.364;2024-02-15T10:42:06;9.27;;;7.63;;
73872;SDS011;62206;47.568;9.364;2024-02-15T10:44:34;8.60;;;7.68;;
73872;SDS011;62206;47.568;9.364;2024-02-15T10:47:04;10.40;;;8.20;;
73872;SDS011;62206;47.568;9.364;2024-02-15T10:49:33;9.48;;;7.82;;
73872;SDS011;62206;47.568;9.364;2024-02-15T10:52:03;10.15;;;6.88;;
73872;SDS011;62206;47.568;9.364;2024-02-15T10:54:38;9.47;;;6.97;;
73872;SDS011;62206;47.568;9.364;2024-02-15T10:57:08;10.10;;;7.57;;
73872;SDS011;62206;47.568;9.364;2024-02-15T10:59:37;7.43;;;6.72;;
73872;SDS011;62206;47.568;9.364;2024-02-15T11:02:11;7.85;;;6.72;;
73872;SDS011;62206;47.568;9.364;2024-02-15T11:04:48;7.22;;;6.50;;
73872;SDS011;62206;47.568;9.364;2024-02-15T11:07:21;6.60;;;5.90;;
73872;SDS011;62206;47.568;9.364;2024-02-15T11:09:51;7.60;;;6.57;;
73872;SDS011;62206;47.568;9.364;2024-02-15T11:12:18;7.68;;;6.75;;
73872;SDS011;62206;47.568;9.364;2024-02-15T11:14:45;7.28;;;6.05;;
73872;SDS011;62206;47.568;9.364;2024-02-15T11:17:13;7.97;;;7.18;;
73872;SDS011;62206;47.568;9.364;2024-02-15T11:23:26;7.05;;;6.18;;
73872;SDS011;62206;47.568;9.364;2024-02-15T11:25:53;8.48;;;6.72;;
73872;SDS011;62206;47.568;9.364;2024-02-15T11:28:35;7.88;;;6.43;;
73872;SDS011;62206;47.568;9.364;2024-02-15T11:31:10;8.02;;;6.22;;
73872;SDS011;62206;47.568;9.364;2024-02-15T11:33:43;7.43;;;6.00;;
73872;SDS011;62206;47.568;9.364;2024-02-15T11:36:10;6.80;;;5.88;;
73872;SDS011;62206;47.568;9.364;2024-02-15T11:38:39;9.02;;;7.25;;
73872;SDS011;62206;47.568;9.364;2024-02-15T11:41:09;6.95;;;6.15;;
73872;SDS011;62206;47.568;9.364;2024-02-15T11:43:49;8.98;;;6.93;;
73872;SDS011;62206;47.568;9.364;2024-02-15T11:46:25;8.60;;;6.40;;
73872;SDS011;62206;47.568;9.364;2024-02-15T11:48:55;7.53;;;5.57;;
73872;SDS011;62206;47.568;9.364;2024-02-15T11:51:31;9.35;;;6.15;;
73872;SDS011;62206;47.568;9.364;2024-02-15T11:54:07;8.65;;;5.65;;
73872;SDS011;62206;47.568;9.364;2024-02-15T11:56:52;6.72;;;5.70;;
73872;SDS011;62206;47.568;9.364;2024-02-15T11:59:38;6.90;;;5.43;;
73872;SDS011;62206;47.568;9.364;2024-02-15T12:02:19;6.72;;;4.85;;
73872;SDS011;62206;47.568;9.364;2024-02-15T12:05:04;8.05;;;5.97;;
73872;SDS011;62206;47.568;9.364;2024-02-15T12:07:49;8.45;;;6.05;;
73872;SDS011;62206;47.568;9.364;2024-02-15T12:10:35;8.40;;;6.00;;
73872;SDS011;62206;47.568;9.364;2024-02-15T12:13:20;8.33;;;5.73;;
73872;SDS011;62206;47.568;9.364;2024-02-15T12:16:04;8.02;;;5.95;;
73872;SDS011;62206;47.568;9.364;2024-02-15T12:18:49;8.38;;;6.32;;
73872;SDS011;62206;47.568;9.364;2024-02-15T12:21:18;7.03;;;6.32;;
73872;SDS011;62206;47.568;9.364;2024-02-15T12:23:48;6.63;;;5.85;;
73872;SDS011;62206;47.568;9.364;2024-02-15T12:26:19;8.37;;;6.23;;
73872;SDS011;62206;47.568;9.364;2024-02-15T12:28:52;7.45;;;6.03;;
73872;SDS011;62206;47.568;9.364;2024-02-15T12:31:22;8.45;;;5.93;;
73872;SDS011;62206;47.568;9.364;2024-02-15T12:33:59;7.53;;;5.15;;
73872;SDS011;62206;47.568;9.364;2024-02-15T12:36:27;6.63;;;5.28;;
73872;SDS011;62206;47.568;9.364;2024-02-15T12:39:00;7.23;;;4.90;;
73872;SDS011;62206;47.568;9.364;2024-02-15T12:41:31;7.78;;;5.65;;
73872;SDS011;62206;47.568;9.364;2024-02-15T12:43:57;7.95;;;7.07;;
73872;SDS011;62206;47.568;9.364;2024-02-15T12:46:24;6.30;;;5.47;;
73872;SDS011;62206;47.568;9.364;2024-02-15T12:49:05;7.40;;;5.75;;
73872;SDS011;62206;47.568;9.364;2024-02-15T12:51:33;7.37;;;6.40;;
73872;SDS011;62206;47.568;9.364;2024-02-15T12:54:07;7.80;;;6.18;;
73872;SDS011;62206;47.568;9.364;2024-02-15T12:56:36;10.77;;;5.97;;
73872;SDS011;62206;47.568;9.364;2024-02-15T12:59:05;7.03;;;5.90;;
73872;SDS011;62206;47.568;9.364;2024-02-15T13:01:32;7.18;;;5.68;;
73872;SDS011;62206;47.568;9.364;2024-02-15T13:03:59;8.33;;;5.80;;
73872;SDS011;62206;47.568;9.364;2024-02-15T13:06:28;6.72;;;5.13;;
73872;SDS011;62206;47.568;9.364;2024-02-15T13:08:54;7.13;;;5.50;;
73872;SDS011;62206;47.568;9.364;2024-02-15T13:11:21;7.90;;;5.60;;
73872;SDS011;62206;47.568;9.364;2024-02-15T13:13:53;5.57;;;4.97;;
73872;SDS011;62206;47.568;9.364;2024-02-15T13:16:20;5.80;;;4.50;;
73872;SDS011;62206;47.568;9.364;2024-02-15T13:18:48;5.72;;;4.80;;
73872;SDS011;62206;47.568;9.364;2024-02-15T13:21:16;6.95;;;4.75;;
73872;SDS011;62206;47.568;9.364;2024-02-15T13:23:43;7.32;;;5.13;;
73872;SDS011;62206;47.568;9.364;2024-02-15T13:26:10;6.70;;;5.43;;
73872;SDS011;62206;47.568;9.364;2024-02-15T13:28:37;5.83;;;4.73;;
73872;SDS011;62206;47.568;9.364;2024-02-15T13:31:06;7.80;;;5.63;;
73872;SDS011;62206;47.568;9.364;2024-02-15T13:33:37;8.00;;;5.28;;
73872;SDS011;62206;47.568;9.364;2024-02-15T13:36:04;7.07;;;4.65;;
73872;SDS011;62206;47.568;9.364;2024-02-15T13:38:35;6.05;;;5.45;;
73872;SDS011;62206;47.568;9.364;2024-02-15T13:41:03;5.23;;;4.37;;
73872;SDS011;62206;47.568;9.364;2024-02-15T13:43:30;6.30;;;4.47;;
73872;SDS011;62206;47.568;9.364;2024-02-15T13:45:57;7.28;;;4.80;;
73872;SDS011;62206;47.568;9.364;2024-02-15T13:48:27;6.07;;;4.40;;
73872;SDS011;62206;47.568;9.364;2024-02-15T13:50:56;6.80;;;4.90;;
73872;SDS011;62206;47.568;9.364;2024-02-15T13:53:23;5.30;;;4.37;;
73872;SDS011;62206;47.568;9.364;2024-02-15T13:55:51;5.25;;;4.47;;
73872;SDS011;62206;47.568;9.364;2024-02-15T13:58:18;6.57;;;4.93;;
73872;SDS011;62206;47.568;9.364;2024-02-15T14:00:45;5.47;;;4.82;;
73872;SDS011;62206;47.568;9.364;2024-02-15T14:03:13;7.90;;;4.97;;
73872;SDS011;62206;47.568;9.364;2024-02-15T14:05:42;6.90;;;5.40;;
73872;SDS011;62206;47.568;9.364;2024-02-15T14:08:11;6.80;;;5.47;;
73872;SDS011;62206;47.568;9.364;2024-02-15T14:10:38;7.75;;;6.28;;
73872;SDS011;62206;47.568;9.364;2024-02-15T14:13:05;7.32;;;5.15;;
73872;SDS011;62206;47.568;9.364;2024-02-15T14:15:34;5.95;;;4.70;;
73872;SDS011;62206;47.568;9.364;2024-02-15T14:18:04;5.53;;;4.40;;
73872;SDS011;62206;47.568;9.364;2024-02-15T14:20:31;6.00;;;5.07;;
73872;SDS011;62206;47.568;9.364;2024-02-15T14:22:59;6.78;;;5.53;;
73872;SDS011;62206;47.568;9.364;2024-02-15T14:25:31;6.95;;;5.43;;
73872;SDS011;62206;47.568;9.364;2024-02-15T14:27:58;6.43;;;5.40;;
73872;SDS011;62206;47.568;9.364;2024-02-15T14:30:25;6.47;;;5.13;;
73872;SDS011;62206;47.568;9.364;2024-02-15T14:33:10;6.90;;;5.38;;
73872;SDS011;62206;47.568;9.364;2024-02-15T14:35:40;7.38;;;6.05;;
73872;SDS011;62206;47.568;9.364;2024-02-15T14:38:09;7.05;;;6.13;;
73872;SDS011;62206;47.568;9.364;2024-02-15T14:40:38;7.53;;;6.10;;
73872;SDS011;62206;47.568;9.364;2024-02-15T14:43:06;9.23;;;5.93;;
73872;SDS011;62206;47.568;9.364;2024-02-15T14:45:33;8.40;;;6.72;;
73872;SDS011;62206;47.568;9.364;2024-02-15T14:48:02;8.45;;;7.15;;
73872;SDS011;62206;47.568;9.364;2024-02-15T14:50:29;8.38;;;7.07;;
73872;SDS011;62206;47.568;9.364;2024-02-15T14:52:56;8.75;;;7.82;;
73872;SDS011;62206;47.568;9.364;2024-02-15T14:55:25;9.87;;;7.70;;
73872;SDS011;62206;47.568;9.364;2024-02-15T14:57:51;9.23;;;8.25;;
73872;SDS011;62206;47.568;9.364;2024-02-15T15:00:18;9.43;;;8.25;;
73872;SDS011;62206;47.568;9.364;2024-02-15T15:02:49;10.45;;;8.90;;
73872;SDS011;62206;47.568;9.364;2024-02-15T15:05:16;10.52;;;8.80;;
73872;SDS011;62206;47.568;9.364;2024-02-15T15:08:01;10.27;;;9.27;;
73872;SDS011;62206;47.568;9.364;2024-02-15T15:10:47;10.27;;;9.00;;
73872;SDS011;62206;47.568;9.364;2024-02-15T15:13:32;13.05;;;9.00;;
73872;SDS011;62206;47.568;9.364;2024-02-15T15:16:02;10.60;;;8.05;;
73872;SDS011;62206;47.568;9.364;2024-02-15T15:18:29;10.45;;;8.82;;
73872;SDS011;62206;47.568;9.364;2024-02-15T15:20:57;9.60;;;8.30;;